Time;durP1;ratioP1;P1;durP2;ratioP2;P2;SDS_P1;SDS_P2;PMS_P1;PMS_P2;Temp;Humidity;BMP_temperature;BMP_pressure;BME280_temperature;BME280_humidity;BME280_pressure;Samples;Min_cycle;Max_cycle;Signal;HPM_P1;HPM_P2
2024/01/23 00:00:37;;;;;;;1.23;1.13;;;;;;;0.14;63.06;93171.75;4840743;29;20129;-81
2024/01/23 00:03:02;;;;;;;1.52;1.00;;;;;;;0.13;66.51;93178.66;4840830;29;20050;-81
2024/01/23 00:05:28;;;;;;;0.82;0.80;;;;;;;0.09;69.41;93174.94;4840644;29;20038;-81
2024/01/23 00:07:55;;;;;;;1.63;0.90;;;;;;;0.07;67.92;93189.81;4839703;29;20030;-82
2024/01/23 00:10:22;;;;;;;2.63;1.23;;;;;;;0.02;65.02;93186.25;4840817;29;20038;-79
2024/01/23 00:12:48;;;;;;;1.35;1.02;;;;;;;-0.02;62.89;93198.75;4839314;29;20034;-80
2024/01/23 00:15:14;;;;;;;1.30;1.05;;;;;;;-0.08;64.37;93187.47;4839621;29;20383;-82
2024/01/23 00:17:40;;;;;;;1.63;1.10;;;;;;;-0.18;63.72;93168.31;4840473;29;20496;-82
2024/01/23 00:20:07;;;;;;;1.17;1.02;;;;;;;-0.19;62.19;93166.72;4841488;29;20046;-82
2024/01/23 00:22:33;;;;;;;1.50;1.10;;;;;;;-0.18;62.29;93173.44;4840922;29;20037;-81
2024/01/23 00:24:59;;;;;;;1.40;1.30;;;;;;;-0.22;63.03;93168.72;4838297;29;20383;-81
2024/01/23 00:27:25;;;;;;;1.17;1.08;;;;;;;-0.28;62.04;93172.09;4836690;29;20022;-80
2024/01/23 00:29:51;;;;;;;1.60;1.02;;;;;;;-0.30;62.81;93176.66;4840520;29;20073;-80
2024/01/23 00:32:16;;;;;;;1.23;1.02;;;;;;;-0.31;64.78;93172.50;4840580;29;20177;-80
2024/01/23 00:34:42;;;;;;;2.03;1.17;;;;;;;-0.32;65.82;93188.13;4823882;29;20342;-80
2024/01/23 00:37:08;;;;;;;1.73;0.98;;;;;;;-0.37;66.84;93181.03;4840041;29;20038;-80
2024/01/23 00:39:37;;;;;;;1.60;1.00;;;;;;;-0.40;65.91;93184.00;4823561;29;20048;-81
2024/01/23 00:42:06;;;;;;;1.00;0.90;;;;;;;-0.42;66.12;93186.78;4839440;29;20046;-80
2024/01/23 00:44:32;;;;;;;1.33;1.00;;;;;;;-0.39;64.84;93177.88;4840191;29;20506;-80
2024/01/23 00:46:57;;;;;;;1.17;1.08;;;;;;;-0.34;63.64;93180.59;4819305;29;20087;-80
2024/01/23 00:49:23;;;;;;;1.20;1.10;;;;;;;-0.37;64.98;93185.38;4836055;29;20053;-81
2024/01/23 00:51:48;;;;;;;1.10;0.93;;;;;;;-0.40;65.02;93186.59;4823584;29;20057;-80
2024/01/23 00:54:14;;;;;;;1.30;1.00;;;;;;;-0.39;66.25;93183.00;4840005;29;20061;-80
2024/01/23 00:56:43;;;;;;;1.73;1.15;;;;;;;-0.32;68.22;93183.78;4839656;29;20041;-80
2024/01/23 00:59:12;;;;;;;1.77;1.20;;;;;;;-0.24;68.14;93188.72;4842173;29;20041;-80
2024/01/23 01:01:38;;;;;;;2.13;1.30;;;;;;;-0.18;66.79;93181.16;4842320;29;20041;-79
2024/01/23 01:04:04;;;;;;;1.30;1.10;;;;;;;-0.07;67.61;93188.25;4839877;29;20073;-80
2024/01/23 01:06:30;;;;;;;1.05;0.95;;;;;;;-0.05;70.29;93178.53;4842946;29;20037;-79
2024/01/23 01:08:56;;;;;;;1.20;1.10;;;;;;;-0.12;68.75;93170.84;4827049;29;20049;-81
2024/01/23 01:11:22;;;;;;;1.80;1.25;;;;;;;-0.21;69.58;93175.44;4842668;29;20586;-79
2024/01/23 01:13:47;;;;;;;1.50;1.20;;;;;;;-0.27;68.45;93176.25;4826148;29;20065;-79
2024/01/23 01:16:13;;;;;;;1.67;1.30;;;;;;;-0.28;69.91;93179.81;4824712;29;20073;-81
2024/01/23 01:18:40;;;;;;;1.20;1.10;;;;;;;-0.29;69.91;93185.19;4843504;29;20045;-79
2024/01/23 01:21:07;;;;;;;1.67;1.08;;;;;;;-0.33;70.45;93191.72;4841751;29;20033;-81
2024/01/23 01:23:34;;;;;;;2.67;1.38;;;;;;;-0.34;70.90;93190.13;4815786;29;20041;-81
2024/01/23 01:26:00;;;;;;;2.80;1.20;;;;;;;-0.35;70.44;93188.56;4825838;29;20045;-81
2024/01/23 01:28:26;;;;;;;0.80;0.80;;;;;;;-0.37;70.79;93201.59;4842195;29;20042;-81
2024/01/23 01:30:52;;;;;;;4.63;1.02;;;;;;;-0.36;70.88;93187.78;4842821;29;20117;-80
2024/01/23 01:33:18;;;;;;;1.27;1.00;;;;;;;-0.35;70.31;93199.63;4840865;29;20045;-81
2024/01/23 01:35:44;;;;;;;1.67;1.10;;;;;;;-0.37;73.88;93186.16;4843199;29;20030;-81
2024/01/23 01:38:10;;;;;;;1.00;0.95;;;;;;;-0.35;72.69;93183.41;4835661;29;20042;-80
2024/01/23 01:40:35;;;;;;;1.30;1.20;;;;;;;-0.35;72.56;93189.34;4842113;29;20044;-80
2024/01/23 01:43:01;;;;;;;0.80;0.80;;;;;;;-0.36;72.98;93182.63;4842458;29;20040;-79
2024/01/23 01:45:26;;;;;;;1.00;0.90;;;;;;;-0.37;73.20;93170.72;4835587;29;20073;-80
2024/01/23 01:47:53;;;;;;;1.05;0.90;;;;;;;-0.36;74.63;93169.75;4843518;29;20073;-81
2024/01/23 01:50:19;;;;;;;1.20;1.00;;;;;;;-0.38;73.78;93164.03;4842248;29;20125;-80
2024/01/23 01:52:46;;;;;;;1.10;1.00;;;;;;;-0.33;74.53;93153.91;4842057;29;20102;-79
2024/01/23 01:55:12;;;;;;;1.00;0.90;;;;;;;-0.28;76.40;93154.06;4842003;29;20046;-80
2024/01/23 01:57:39;;;;;;;1.02;0.93;;;;;;;-0.23;77.56;93156.81;4841262;29;20030;-81
2024/01/23 02:00:07;;;;;;;0.80;0.80;;;;;;;-0.22;78.65;93148.13;4842653;29;20503;-81
2024/01/23 02:02:40;;;;;;;0.70;0.70;;;;;;;-0.16;78.64;93153.44;4824430;29;20190;-80
2024/01/23 02:05:06;;;;;;;1.33;1.00;;;;;;;-0.19;78.90;93154.66;4826230;29;20098;-80
2024/01/23 02:07:33;;;;;;;0.98;0.90;;;;;;;-0.16;79.09;93151.66;4806688;29;20034;-80
2024/01/23 02:09:59;;;;;;;1.10;1.00;;;;;;;-0.14;78.22;93148.88;4823889;29;20042;-80
2024/01/23 02:12:24;;;;;;;1.00;0.90;;;;;;;-0.13;78.99;93135.03;4825715;29;20044;-80
2024/01/23 02:14:50;;;;;;;1.30;1.20;;;;;;;0.02;81.83;93132.19;4834772;29;20049;-80
2024/01/23 02:17:15;;;;;;;0.90;0.90;;;;;;;0.02;80.52;93139.91;4839720;29;20935;-79
2024/01/23 02:19:41;;;;;;;1.05;0.98;;;;;;;-0.10;81.25;93130.25;4840856;29;20069;-81
2024/01/23 02:22:06;;;;;;;0.90;0.90;;;;;;;0.02;80.56;93145.84;4841535;29;20045;-80
2024/01/23 02:24:32;;;;;;;0.80;0.80;;;;;;;0.01;79.79;93144.28;4841492;29;20125;-79
2024/01/23 02:26:57;;;;;;;0.88;0.80;;;;;;;0.07;81.89;93145.22;4825294;29;20034;-79
2024/01/23 02:29:23;;;;;;;1.88;1.02;;;;;;;0.15;84.52;93148.34;4840704;29;20038;-80
2024/01/23 02:31:48;;;;;;;1.05;0.95;;;;;;;0.22;85.42;93150.13;4839410;29;20090;-80
2024/01/23 02:34:14;;;;;;;0.98;0.90;;;;;;;0.22;83.51;93145.75;4841833;29;20038;-80
2024/01/23 02:36:41;;;;;;;1.73;0.90;;;;;;;0.23;83.03;93156.88;4840395;29;20052;-80
2024/01/23 02:39:07;;;;;;;1.85;1.02;;;;;;;0.20;82.96;93147.75;4840875;29;20518;-79
2024/01/23 02:41:32;;;;;;;0.80;0.80;;;;;;;0.26;86.01;93148.72;4823612;29;20158;-80
2024/01/23 02:43:58;;;;;;;0.80;0.80;;;;;;;0.26;86.31;93144.34;4824016;29;20617;-81
2024/01/23 02:46:24;;;;;;;0.80;0.80;;;;;;;0.30;89.38;93142.16;4841152;29;20050;-80
2024/01/23 02:48:49;;;;;;;0.70;0.70;;;;;;;0.33;89.37;93139.16;4839031;29;20056;-81
2024/01/23 02:51:19;;;;;;;0.73;0.73;;;;;;;0.40;89.56;93138.09;4839830;29;20032;-79
2024/01/23 02:53:45;;;;;;;0.88;0.88;;;;;;;0.47;89.45;93130.34;4839859;29;20472;-79
2024/01/23 02:56:11;;;;;;;0.68;0.68;;;;;;;0.48;90.79;93124.22;4840973;29;20030;-80
2024/01/23 02:58:39;;;;;;;0.85;0.80;;;;;;;0.54;90.89;93122.56;4825396;29;20121;-79
2024/01/23 03:01:04;;;;;;;1.20;0.80;;;;;;;0.55;91.12;93127.53;4822876;29;20038;-79
2024/01/23 03:03:30;;;;;;;0.77;0.77;;;;;;;0.61;90.51;93131.84;4823605;29;20034;-79
2024/01/23 03:05:55;;;;;;;0.98;0.90;;;;;;;0.66;90.24;93127.88;4839351;29;20050;-80
2024/01/23 03:08:22;;;;;;;0.93;0.85;;;;;;;0.75;89.77;93124.03;4823654;29;20046;-80
2024/01/23 03:10:49;;;;;;;1.02;0.88;;;;;;;0.82;89.26;93129.91;4836508;29;20061;-79
2024/01/23 03:13:15;;;;;;;1.23;0.80;;;;;;;1.28;86.69;93126.13;4825042;29;20073;-80
2024/01/23 03:15:40;;;;;;;1.00;0.90;;;;;;;1.55;82.67;93136.19;4838769;29;20116;-80
2024/01/23 03:18:06;;;;;;;0.80;0.80;;;;;;;1.56;81.64;93120.50;4839407;29;20046;-79
2024/01/23 03:20:33;;;;;;;1.20;0.80;;;;;;;1.41;80.26;93131.16;4841254;29;20030;-81
2024/01/23 03:22:59;;;;;;;0.80;0.80;;;;;;;1.38;79.96;93129.03;4837656;29;20081;-79
2024/01/23 03:25:24;;;;;;;0.70;0.70;;;;;;;1.33;78.04;93112.59;4841198;29;20070;-79
2024/01/23 03:27:50;;;;;;;0.90;0.70;;;;;;;1.43;76.49;93131.75;4821357;29;20041;-80
2024/01/23 03:30:29;;;;;;;0.70;0.70;;;;;;;1.42;76.41;93137.13;4840180;29;20042;-81
2024/01/23 03:32:55;;;;;;;0.70;0.70;;;;;;;1.42;75.53;93122.44;4838988;29;20038;-80
2024/01/23 03:35:21;;;;;;;1.92;0.73;;;;;;;1.52;74.84;93131.47;4838962;29;20246;-79
2024/01/23 03:37:46;;;;;;;0.55;0.55;;;;;;;1.53;74.62;93122.72;4838728;29;20030;-81
2024/01/23 03:40:12;;;;;;;0.60;0.60;;;;;;;1.63;73.03;93128.19;4837770;29;20593;-80
2024/01/23 03:42:38;;;;;;;0.80;0.80;;;;;;;1.75;72.45;93136.75;4840987;29;20038;-80
2024/01/23 03:45:05;;;;;;;0.80;0.80;;;;;;;2.11;70.74;93130.00;4841512;29;20058;-81
2024/01/23 03:47:31;;;;;;;0.50;0.50;;;;;;;2.29;69.27;93136.91;4840814;29;20038;-80
2024/01/23 03:49:56;;;;;;;0.75;0.75;;;;;;;2.74;67.14;93133.13;4824729;29;20575;-80
2024/01/23 03:52:22;;;;;;;0.60;0.60;;;;;;;2.95;68.83;93137.78;4840343;29;20038;-80
2024/01/23 03:54:49;;;;;;;0.70;0.70;;;;;;;3.04;68.72;93143.38;4824674;29;20034;-80
2024/01/23 03:57:18;;;;;;;0.80;0.80;;;;;;;2.79;68.75;93156.50;4835940;29;20070;-80
2024/01/23 03:59:45;;;;;;;0.60;0.60;;;;;;;2.68;68.79;93155.50;4841087;29;20034;-81
2024/01/23 04:02:12;;;;;;;0.63;0.63;;;;;;;2.66;67.44;93153.13;4823196;29;20038;-79
2024/01/23 04:04:38;;;;;;;0.68;0.68;;;;;;;2.86;68.55;93155.41;4841741;29;20041;-80
2024/01/23 04:07:04;;;;;;;0.70;0.63;;;;;;;3.22;66.63;93161.44;4840926;29;20034;-80
2024/01/23 04:09:30;;;;;;;0.60;0.60;;;;;;;3.27;66.68;93163.34;4840367;29;20037;-79
2024/01/23 04:11:56;;;;;;;1.42;0.80;;;;;;;3.38;65.90;93159.97;4824619;29;20042;-80
2024/01/23 04:14:23;;;;;;;0.60;0.60;;;;;;;3.43;64.50;93159.28;4819191;29;20113;-79
2024/01/23 04:16:49;;;;;;;0.60;0.60;;;;;;;3.50;63.74;93165.94;4820297;29;20042;-80
2024/01/23 04:19:14;;;;;;;0.73;0.70;;;;;;;3.65;63.12;93175.06;4824165;29;20558;-81
2024/01/23 04:21:40;;;;;;;0.70;0.60;;;;;;;3.76;62.47;93163.91;4840710;29;20064;-80
2024/01/23 04:24:07;;;;;;;0.63;0.63;;;;;;;3.92;60.26;93159.81;4824324;29;20050;-80
2024/01/23 04:26:32;;;;;;;0.50;0.50;;;;;;;3.99;59.75;93165.66;4840360;29;20053;-81
2024/01/23 04:28:58;;;;;;;0.60;0.60;;;;;;;4.12;59.80;93164.59;4840057;29;20042;-81
2024/01/23 04:31:24;;;;;;;0.50;0.50;;;;;;;4.24;58.35;93175.72;4819666;29;20030;-81
2024/01/23 04:33:50;;;;;;;0.80;0.80;;;;;;;4.48;56.72;93183.41;4841941;29;20053;-81
2024/01/23 04:36:19;;;;;;;0.68;0.68;;;;;;;4.83;54.65;93172.13;4826820;29;20717;-81
2024/01/23 04:38:45;;;;;;;0.63;0.60;;;;;;;4.83;54.93;93178.09;4839255;29;20063;-80
2024/01/23 04:41:11;;;;;;;0.65;0.65;;;;;;;4.86;55.21;93189.81;4843470;29;20471;-81
2024/01/23 04:43:37;;;;;;;0.95;0.60;;;;;;;5.04;54.14;93191.41;4838977;29;20034;-80
2024/01/23 04:46:03;;;;;;;0.70;0.70;;;;;;;5.13;53.04;93198.56;4842125;29;20106;-80
2024/01/23 04:48:29;;;;;;;0.57;0.57;;;;;;;5.16;53.17;93211.09;4842945;29;20514;-80
2024/01/23 04:50:55;;;;;;;0.70;0.60;;;;;;;5.42;51.71;93201.88;4843822;29;20038;-80
2024/01/23 04:53:20;;;;;;;0.70;0.70;;;;;;;5.43;51.67;93210.47;4843452;29;20030;-79
2024/01/23 04:55:46;;;;;;;0.50;0.50;;;;;;;5.37;52.20;93221.81;4842816;29;20045;-81
2024/01/23 04:58:11;;;;;;;0.63;0.50;;;;;;;5.43;51.96;93231.25;4825582;29;20340;-80
2024/01/23 05:00:37;;;;;;;1.17;0.57;;;;;;;5.39;52.66;93232.75;4842424;29;20042;-81
2024/01/23 05:03:03;;;;;;;0.77;0.77;;;;;;;5.36;52.77;93231.41;4842820;29;20548;-80
2024/01/23 05:05:31;;;;;;;0.50;0.50;;;;;;;5.33;53.49;93231.84;4820696;29;20076;-80
2024/01/23 05:07:56;;;;;;;0.60;0.60;;;;;;;5.22;53.97;93230.94;4842565;29;20041;-80
2024/01/23 05:10:22;;;;;;;0.60;0.60;;;;;;;5.18;54.42;93236.81;4819987;29;20038;-81
2024/01/23 05:12:47;;;;;;;0.60;0.60;;;;;;;5.09;54.98;93246.78;4842889;29;20033;-79
2024/01/23 05:15:19;;;;;;;0.63;0.63;;;;;;;5.01;55.29;93247.94;4821306;29;20038;-79
2024/01/23 05:17:45;;;;;;;0.60;0.60;;;;;;;4.94;56.26;93249.91;4836732;29;20065;-81
2024/01/23 05:20:11;;;;;;;0.88;0.50;;;;;;;4.85;56.12;93255.69;4839052;29;20094;-81
2024/01/23 05:22:36;;;;;;;0.55;0.55;;;;;;;4.82;56.47;93262.13;4825209;29;20045;-81
2024/01/23 05:25:03;;;;;;;0.63;0.63;;;;;;;4.80;56.74;93270.13;4827599;29;20037;-81
2024/01/23 05:27:29;;;;;;;0.50;0.50;;;;;;;4.75;57.36;93264.06;4824896;29;20431;-81
2024/01/23 05:29:54;;;;;;;0.60;0.60;;;;;;;4.73;57.50;93276.50;4831722;29;20118;-81
2024/01/23 05:32:20;;;;;;;0.65;0.65;;;;;;;4.70;57.38;93280.31;4839664;29;20424;-81
2024/01/23 05:34:45;;;;;;;1.73;1.23;;;;;;;4.64;57.77;93270.88;4824153;29;20034;-81
2024/01/23 05:37:12;;;;;;;0.80;0.80;;;;;;;4.61;57.83;93281.69;4838792;29;20353;-81
2024/01/23 05:39:40;;;;;;;0.75;0.70;;;;;;;4.59;57.74;93291.50;4838422;29;21238;-81
2024/01/23 05:42:06;;;;;;;0.60;0.60;;;;;;;4.56;57.77;93290.16;4839294;29;20053;-82
2024/01/23 05:44:32;;;;;;;0.40;0.40;;;;;;;4.54;58.17;93296.59;4837336;29;20018;-81
2024/01/23 05:46:58;;;;;;;2.15;0.73;;;;;;;4.52;58.49;93307.19;4836846;29;20050;-82
2024/01/23 05:49:24;;;;;;;0.70;0.70;;;;;;;4.49;58.66;93317.25;4839917;29;20510;-80
2024/01/23 05:51:49;;;;;;;0.60;0.60;;;;;;;4.47;58.97;93307.09;4834434;29;20439;-80
2024/01/23 05:54:15;;;;;;;0.70;0.70;;;;;;;4.42;58.50;93308.81;4838927;29;20069;-80
2024/01/23 05:56:40;;;;;;;1.45;0.60;;;;;;;4.48;58.33;93315.66;4839376;29;20042;-79
2024/01/23 05:59:06;;;;;;;0.70;0.70;;;;;;;4.47;58.21;93316.69;4824182;29;20123;-80
2024/01/23 06:01:32;;;;;;;0.68;0.68;;;;;;;4.45;58.26;93316.13;4836611;29;20070;-81
2024/01/23 06:03:58;;;;;;;1.08;0.70;;;;;;;4.35;58.53;93324.47;4840145;29;20315;-81
2024/01/23 06:06:24;;;;;;;1.42;0.70;;;;;;;4.35;58.16;93327.84;4838305;29;20759;-84
2024/01/23 06:08:50;;;;;;;0.75;0.75;;;;;;;4.38;58.04;93329.97;4817868;29;20091;-83
2024/01/23 06:11:15;;;;;;;1.30;0.80;;;;;;;4.44;57.31;93323.13;4840026;29;20052;-83
2024/01/23 06:13:41;;;;;;;0.60;0.60;;;;;;;4.51;56.26;93328.97;4841672;29;20072;-82
2024/01/23 06:16:06;;;;;;;0.88;0.63;;;;;;;4.70;53.94;93331.41;4821897;29;20034;-83
2024/01/23 06:18:32;;;;;;;0.50;0.50;;;;;;;4.97;51.74;93342.06;4835299;29;20026;-82
2024/01/23 06:20:57;;;;;;;0.70;0.70;;;;;;;5.10;51.02;93339.19;4842368;29;20042;-81
2024/01/23 06:23:24;;;;;;;0.70;0.70;;;;;;;5.15;51.12;93348.88;4841696;29;20021;-82
2024/01/23 06:25:50;;;;;;;0.75;0.68;;;;;;;5.26;50.04;93355.06;4828679;29;20037;-83
2024/01/23 06:28:16;;;;;;;0.60;0.60;;;;;;;5.24;50.34;93352.69;4840354;29;20118;-83
2024/01/23 06:30:42;;;;;;;0.77;0.77;;;;;;;5.16;51.09;93348.66;4840094;29;20090;-82
2024/01/23 06:33:08;;;;;;;2.38;0.90;;;;;;;5.15;51.84;93360.03;4819267;29;20041;-82
2024/01/23 06:35:34;;;;;;;0.88;0.80;;;;;;;5.08;52.22;93354.19;4840509;29;20521;-81
2024/01/23 06:37:59;;;;;;;3.92;0.80;;;;;;;5.04;52.85;93360.88;4837230;29;20034;-82
2024/01/23 06:40:25;;;;;;;1.10;0.80;;;;;;;4.97;53.33;93357.63;4835981;29;20037;-82
2024/01/23 06:42:50;;;;;;;1.15;0.90;;;;;;;4.89;53.71;93365.78;4839245;29;20045;-81
2024/01/23 06:45:16;;;;;;;1.55;1.10;;;;;;;4.85;54.34;93369.84;4833418;29;20187;-79
2024/01/23 06:47:42;;;;;;;0.80;0.80;;;;;;;4.78;54.74;93375.94;4841656;29;20195;-79
2024/01/23 06:50:08;;;;;;;1.02;0.80;;;;;;;4.73;55.13;93377.66;4834580;29;20045;-80
2024/01/23 06:52:34;;;;;;;1.65;1.02;;;;;;;4.67;55.55;93379.34;4825931;29;20109;-81
2024/01/23 06:54:59;;;;;;;1.88;1.40;;;;;;;4.65;55.58;93390.97;4842264;29;20057;-81
2024/01/23 06:57:25;;;;;;;1.48;1.00;;;;;;;4.64;55.36;93390.19;4825817;29;20394;-80
2024/01/23 06:59:51;;;;;;;1.42;1.13;;;;;;;4.67;54.94;93397.50;4828683;29;20061;-80
2024/01/23 07:02:16;;;;;;;1.15;1.00;;;;;;;4.70;54.35;93394.44;4834974;29;20034;-80
2024/01/23 07:04:42;;;;;;;0.60;0.60;;;;;;;4.78;53.80;93403.69;4842044;29;20045;-82
2024/01/23 07:07:08;;;;;;;0.80;0.80;;;;;;;4.80;53.47;93399.06;4842048;29;20041;-81
2024/01/23 07:09:34;;;;;;;0.60;0.60;;;;;;;4.81;53.22;93385.06;4832552;29;20038;-78
2024/01/23 07:11:59;;;;;;;1.08;0.80;;;;;;;4.91;52.54;93394.84;4835648;29;20018;-80
2024/01/23 07:14:25;;;;;;;0.68;0.68;;;;;;;4.88;51.76;93384.94;4834894;29;20098;-79
2024/01/23 07:16:50;;;;;;;2.08;0.70;;;;;;;5.03;51.24;93406.00;4836135;29;20406;-79
2024/01/23 07:19:16;;;;;;;0.60;0.60;;;;;;;6.18;48.66;93403.41;4843214;29;20045;-79
2024/01/23 07:21:42;;;;;;;0.85;0.70;;;;;;;7.46;45.43;93392.88;4842914;29;20042;-82
2024/01/23 07:24:08;;;;;;;1.20;0.90;;;;;;;8.72;42.98;93397.91;4835033;29;20045;-80
2024/01/23 07:26:33;;;;;;;0.60;0.60;;;;;;;10.00;38.17;93398.38;4841018;29;20124;-80
2024/01/23 07:29:04;;;;;;;0.73;0.70;;;;;;;11.03;36.35;93393.88;4837193;29;20034;-81
2024/01/23 07:31:30;;;;;;;1.10;0.70;;;;;;;12.02;33.94;93396.63;4840891;29;20053;-80
2024/01/23 07:33:56;;;;;;;0.70;0.70;;;;;;;12.97;31.81;93394.56;4827055;29;20052;-81
2024/01/23 07:36:22;;;;;;;0.75;0.65;;;;;;;13.74;30.85;93396.34;4835495;29;20481;-80
2024/01/23 07:38:47;;;;;;;0.80;0.80;;;;;;;14.42;29.10;93383.78;4836538;29;20045;-80
2024/01/23 07:41:14;;;;;;;0.80;0.70;;;;;;;15.26;28.19;93390.81;4841573;29;20065;-82
2024/01/23 07:43:39;;;;;;;0.50;0.50;;;;;;;15.68;27.32;93396.88;4839247;29;20030;-80
2024/01/23 07:46:05;;;;;;;0.95;0.70;;;;;;;16.23;26.14;93391.47;4841789;29;20517;-80
2024/01/23 07:48:31;;;;;;;0.55;0.55;;;;;;;17.17;25.94;93387.13;4826335;29;20034;-81
2024/01/23 07:50:56;;;;;;;0.50;0.50;;;;;;;17.71;24.27;93394.94;4842626;29;20548;-81
2024/01/23 07:53:22;;;;;;;0.50;0.50;;;;;;;18.24;23.43;93399.25;4826757;29;20057;-82
2024/01/23 07:55:48;;;;;;;1.15;0.50;;;;;;;18.67;23.12;93389.72;4826771;29;20105;-81
2024/01/23 07:58:14;;;;;;;0.52;0.52;;;;;;;18.78;22.81;93388.34;4827004;29;20038;-83
2024/01/23 08:00:43;;;;;;;0.40;0.40;;;;;;;19.58;22.82;93394.94;4837503;29;20038;-83
2024/01/23 08:03:08;;;;;;;2.55;0.63;;;;;;;19.39;22.14;93400.66;4841849;29;20491;-82
2024/01/23 08:05:34;;;;;;;0.60;0.60;;;;;;;20.23;21.19;93390.97;4838646;29;20030;-82
2024/01/23 08:08:00;;;;;;;0.60;0.60;;;;;;;20.99;20.58;93384.56;4804714;29;20100;-80
2024/01/23 08:10:26;;;;;;;0.70;0.60;;;;;;;20.58;19.12;93380.88;4842449;29;20041;-81
2024/01/23 08:12:52;;;;;;;0.50;0.50;;;;;;;20.57;20.95;93371.31;4830401;29;20041;-81
2024/01/23 08:15:23;;;;;;;0.88;0.68;;;;;;;20.86;22.43;93382.19;4828911;29;20053;-82
2024/01/23 08:17:49;;;;;;;0.52;0.52;;;;;;;20.61;22.64;93371.47;4839684;29;20037;-82
2024/01/23 08:20:15;;;;;;;0.57;0.57;;;;;;;22.33;21.55;93387.59;4812371;29;20029;-81
2024/01/23 08:22:41;;;;;;;0.70;0.70;;;;;;;21.11;21.54;93378.47;4845773;29;20052;-81
2024/01/23 08:25:08;;;;;;;0.50;0.50;;;;;;;21.14;22.50;93382.34;4844878;29;20498;-81
2024/01/23 08:27:33;;;;;;;0.60;0.60;;;;;;;21.87;20.89;93384.31;4844189;29;20042;-82
2024/01/23 08:29:59;;;;;;;0.52;0.52;;;;;;;21.22;22.67;93376.16;4843664;29;20033;-82
2024/01/23 08:32:25;;;;;;;0.60;0.60;;;;;;;21.35;22.80;93390.28;4836509;29;20046;-82
2024/01/23 08:34:51;;;;;;;0.65;0.65;;;;;;;20.14;23.75;93401.66;4844460;29;20045;-83
2024/01/23 08:37:17;;;;;;;0.60;0.60;;;;;;;18.90;24.38;93407.03;4836436;29;20063;-83
2024/01/23 08:39:42;;;;;;;1.77;0.40;;;;;;;17.42;26.81;93406.06;4823933;29;20038;-82
2024/01/23 08:42:08;;;;;;;0.40;0.40;;;;;;;18.13;26.91;93410.47;4839625;29;20050;-82
2024/01/23 08:44:35;;;;;;;0.50;0.50;;;;;;;17.59;26.52;93419.34;4841175;29;20034;-82
2024/01/23 08:47:02;;;;;;;0.50;0.50;;;;;;;19.28;24.82;93419.56;4826100;29;20061;-82
2024/01/23 08:49:30;;;;;;;0.50;0.50;;;;;;;18.65;24.93;93434.34;4836519;29;20433;-84
2024/01/23 08:51:56;;;;;;;0.60;0.60;;;;;;;19.08;25.31;93428.22;4841812;29;20050;-81
2024/01/23 08:54:21;;;;;;;0.55;0.55;;;;;;;19.53;23.96;93436.50;4828073;29;20065;-84
2024/01/23 08:56:47;;;;;;;0.70;0.70;;;;;;;19.49;24.03;93432.16;4845150;29;20042;-81
2024/01/23 08:59:14;;;;;;;0.68;0.45;;;;;;;18.21;25.16;93438.81;4847767;29;20030;-84
2024/01/23 09:01:39;;;;;;;0.38;0.38;;;;;;;15.13;28.45;93447.72;4846702;29;20626;-80
2024/01/23 09:04:06;;;;;;;0.57;0.57;;;;;;;15.25;29.00;93463.09;4847175;29;20058;-80
2024/01/23 09:06:31;;;;;;;0.88;0.77;;;;;;;15.62;27.59;93475.34;4848383;29;20526;-85
2024/01/23 09:08:57;;;;;;;1.48;0.50;;;;;;;15.28;27.87;93473.06;4848113;29;20044;-80
2024/01/23 09:11:22;;;;;;;0.70;0.60;;;;;;;14.92;28.05;93468.41;4846206;29;20109;-83
2024/01/23 09:13:48;;;;;;;0.47;0.47;;;;;;;14.57;27.79;93468.66;4846079;29;20045;-83
2024/01/23 09:16:13;;;;;;;0.50;0.50;;;;;;;14.97;27.09;93482.28;4843107;29;20046;-81
2024/01/23 09:18:40;;;;;;;0.40;0.40;;;;;;;15.15;27.67;93485.94;4828834;29;20041;-81
2024/01/23 09:21:08;;;;;;;0.63;0.60;;;;;;;14.76;28.17;93487.09;4840180;29;20049;-81
2024/01/23 09:23:37;;;;;;;0.88;0.65;;;;;;;14.95;27.55;93488.91;4840855;29;20065;-82
2024/01/23 09:26:03;;;;;;;0.65;0.65;;;;;;;14.87;27.76;93479.03;4843618;29;20057;-84
2024/01/23 09:28:33;;;;;;;0.68;0.60;;;;;;;14.68;27.85;93486.94;4849301;29;20030;-81
2024/01/23 09:30:59;;;;;;;0.57;0.57;;;;;;;14.31;27.31;93483.25;4851225;29;20046;-79
2024/01/23 09:33:26;;;;;;;0.55;0.55;;;;;;;14.43;28.16;93482.81;4830404;29;20098;-79
2024/01/23 09:35:52;;;;;;;0.60;0.60;;;;;;;14.56;27.43;93477.63;4846395;29;20026;-79
2024/01/23 09:38:17;;;;;;;0.57;0.50;;;;;;;13.99;28.44;93471.53;4845274;29;20025;-82
2024/01/23 09:40:48;;;;;;;0.50;0.50;;;;;;;13.95;28.43;93473.16;4844882;29;20046;-80
2024/01/23 09:43:18;;;;;;;1.35;0.45;;;;;;;13.62;27.50;93482.75;4843193;29;20501;-83
2024/01/23 09:45:50;;;;;;;0.60;0.60;;;;;;;13.96;28.29;93487.91;4827481;29;20050;-79
2024/01/23 09:48:16;;;;;;;;;;;;;;;14.03;27.53;93490.19;4830255;29;20038;-83
2024/01/23 09:50:44;;;;;;;1.85;1.10;;;;;;;13.64;27.99;93488.53;4839076;29;19916;-80
2024/01/23 09:53:10;;;;;;;1.60;0.80;;;;;;;13.93;27.91;93489.22;4844825;29;20050;-82
2024/01/23 09:55:36;;;;;;;0.88;0.70;;;;;;;14.11;27.17;93494.81;4841820;29;20034;-83
2024/01/23 09:58:06;;;;;;;0.93;0.70;;;;;;;14.26;26.80;93491.22;4829259;29;20053;-82
2024/01/23 10:00:38;;;;;;;0.70;0.70;;;;;;;14.52;26.95;93491.63;4848391;29;20042;-83
2024/01/23 10:03:08;;;;;;;0.70;0.70;;;;;;;14.68;26.23;93500.94;4826429;29;20046;-81
2024/01/23 10:05:35;;;;;;;1.73;0.68;;;;;;;14.84;25.92;93498.84;4836041;29;20502;-84
2024/01/23 10:08:01;;;;;;;0.65;0.65;;;;;;;14.31;24.98;93493.78;4815010;29;20053;-84
2024/01/23 10:10:29;;;;;;;0.70;0.63;;;;;;;14.18;26.12;93489.22;4835781;29;20070;-84
2024/01/23 10:12:54;;;;;;;0.65;0.63;;;;;;;14.40;26.05;93494.69;4839748;29;20034;-85
2024/01/23 10:15:22;;;;;;;2.17;0.80;;;;;;;14.51;24.77;93495.34;4845921;29;20102;-83
2024/01/23 10:17:48;;;;;;;0.57;0.50;;;;;;;14.32;25.25;93482.97;4837141;29;20401;-84
2024/01/23 10:20:14;;;;;;;1.10;0.60;;;;;;;14.32;25.53;93485.59;4821162;29;20062;-84
2024/01/23 10:22:43;;;;;;;2.28;0.90;;;;;;;13.38;25.02;93482.78;4841065;29;20194;-81
2024/01/23 10:25:20;;;;;;;1.30;1.00;;;;;;;13.42;25.71;93474.03;4835080;29;20575;-78
2024/01/23 10:27:53;;;;;;;1.27;0.90;;;;;;;13.73;24.60;93477.13;4844326;29;20132;-79
2024/01/23 10:30:20;;;;;;;1.17;0.70;;;;;;;13.59;26.00;93478.06;4838332;29;20060;-80
2024/01/23 10:33:32;;;;;;;1.67;0.73;;;;;;;13.85;25.25;93471.47;4847575;29;20048;-78
2024/01/23 10:35:58;;;;;;;1.38;0.80;;;;;;;14.10;25.66;93461.66;4848182;29;20402;-79
2024/01/23 10:38:25;;;;;;;1.80;1.10;;;;;;;14.29;25.03;93461.66;4824200;29;20093;-81
2024/01/23 10:40:51;;;;;;;0.73;0.73;;;;;;;14.56;24.86;93461.03;4835910;29;20328;-81
2024/01/23 10:43:17;;;;;;;0.90;0.80;;;;;;;14.36;24.69;93467.34;4836276;29;20071;-81
2024/01/23 10:45:45;;;;;;;1.48;0.70;;;;;;;13.46;25.07;93458.47;4839405;29;20085;-81
2024/01/23 10:48:12;;;;;;;0.88;0.65;;;;;;;13.38;24.78;93461.72;4838443;29;20049;-82
2024/01/23 10:50:38;;;;;;;0.80;0.70;;;;;;;13.80;24.23;93454.94;4845828;29;20034;-81
2024/01/23 10:53:09;;;;;;;2.30;1.02;;;;;;;13.76;24.80;93444.19;4846071;29;20056;-81
2024/01/23 10:55:38;;;;;;;1.95;0.88;;;;;;;13.92;25.38;93455.31;4837625;29;20468;-80
2024/01/23 10:58:07;;;;;;;0.70;0.70;;;;;;;14.08;23.95;93443.50;4830319;29;20022;-80
2024/01/23 11:00:36;;;;;;;0.65;0.60;;;;;;;14.11;25.18;93450.84;4847925;29;20042;-81
2024/01/23 11:03:12;;;;;;;1.53;0.90;;;;;;;13.72;24.16;93441.34;4834931;29;20034;-80
2024/01/23 11:05:57;;;;;;;1.17;0.80;;;;;;;14.08;23.93;93440.88;4830990;29;20046;-81
2024/01/23 11:08:49;;;;;;;0.77;0.68;;;;;;;14.26;24.76;93439.31;4844430;29;20570;-80
2024/01/23 11:12:14;;;;;;;1.02;0.80;;;;;;;14.67;24.40;93422.94;4836854;29;20647;-80
2024/01/23 11:15:12;;;;;;;1.85;0.80;;;;;;;15.08;22.72;93424.09;4721917;30;20056;-80
2024/01/23 11:17:53;;;;;;;1.52;0.80;;;;;;;15.24;23.21;93422.75;4731619;30;20049;-80
2024/01/23 11:20:26;;;;;;;0.70;0.70;;;;;;;15.10;22.30;93422.72;4736217;30;20052;-78
2024/01/23 11:23:18;;;;;;;0.57;0.57;;;;;;;15.20;22.48;93421.78;4738470;30;20148;-81
2024/01/23 11:26:22;;;;;;;2.20;1.27;;;;;;;14.84;22.40;93418.97;4754591;30;20055;-80
2024/01/23 11:29:04;;;;;;;0.93;0.60;;;;;;;15.11;22.28;93416.41;4730804;30;20428;-80
2024/01/23 11:31:41;;;;;;;1.17;0.90;;;;;;;14.74;22.95;93412.78;4753307;30;20067;-80
2024/01/23 11:34:39;;;;;;;1.00;0.70;;;;;;;14.79;23.11;93419.81;4754995;30;20488;-80
2024/01/23 11:37:45;;;;;;;1.75;0.70;;;;;;;13.85;23.17;93421.44;4755639;30;20060;-80